createdAt,value
2019-04-29T02:44:45.606Z,52.00
2019-04-29T02:47:16.497Z,51.60
2019-04-29T02:49:47.476Z,50.80
2019-04-29T02:52:18.477Z,51.30
2019-04-29T02:54:49.653Z,51.30
2019-04-29T02:57:22.169Z,51.20
2019-04-29T02:59:54.227Z,51.20
2019-04-29T03:02:26.355Z,49.70
2019-04-29T03:04:58.520Z,49.80
2019-04-29T03:07:29.337Z,49.90
2019-04-29T03:10:00.801Z,49.30
2019-04-29T03:12:31.690Z,49.30
2019-04-29T03:15:02.677Z,49.50
2019-04-29T03:17:33.849Z,48.40
2019-04-29T03:20:06.286Z,48.50
2019-04-29T03:22:38.963Z,49.00
2019-04-29T03:25:10.234Z,49.30
2019-04-29T03:27:41.045Z,48.70
2019-04-29T03:30:12.510Z,47.10
2019-04-29T03:32:44.392Z,47.50
2019-04-29T03:35:15.308Z,46.50
2019-04-29T03:37:46.527Z,45.40
2019-04-29T03:40:17.580Z,46.70
2019-04-29T03:42:48.269Z,47.00
2019-04-29T03:45:19.617Z,47.00
2019-04-29T03:47:50.905Z,46.50
2019-04-29T03:50:22.738Z,46.00
2019-04-29T03:52:53.777Z,45.00
2019-04-29T03:55:39.202Z,43.60
2019-04-29T03:57:56.813Z,42.90
2019-04-29T04:00:27.921Z,44.40
2019-04-29T04:02:58.369Z,44.00
2019-04-29T04:05:29.079Z,44.30
2019-04-29T04:08:00.060Z,44.00
2019-04-29T04:10:30.833Z,44.00
2019-04-29T04:13:01.713Z,44.80
2019-04-29T04:15:33.107Z,43.10
2019-04-29T04:18:05.319Z,43.80
2019-04-29T04:20:36.269Z,42.90
2019-04-29T04:23:07.413Z,43.40
2019-04-29T04:25:38.405Z,43.20
2019-04-29T04:28:09.283Z,42.90
2019-04-29T04:30:40.977Z,42.70
2019-04-29T04:33:11.855Z,43.40
2019-04-29T04:35:42.672Z,43.40
2019-04-29T04:38:16.715Z,43.10
2019-04-29T04:40:47.367Z,42.80
2019-04-29T04:43:18.271Z,42.90
2019-04-29T04:45:49.301Z,42.90
2019-04-29T04:48:20.223Z,42.50
2019-04-29T04:50:50.992Z,41.80
2019-04-29T04:53:22.193Z,42.40
2019-04-29T04:55:54.387Z,42.80
2019-04-29T04:58:25.348Z,42.70
2019-04-29T05:00:56.400Z,41.50
2019-04-29T05:03:27.174Z,41.30
2019-04-29T05:05:59.873Z,41.40
2019-04-29T05:08:30.771Z,41.20
2019-04-29T05:11:01.516Z,41.00
2019-04-29T05:13:32.525Z,42.20
2019-04-29T05:16:03.641Z,41.90
2019-04-29T05:18:34.614Z,40.60
2019-04-29T05:21:05.372Z,40.40
2019-04-29T05:23:36.664Z,39.30
2019-04-29T05:26:08.332Z,40.20
2019-04-29T05:28:39.309Z,39.90
2019-04-29T05:31:10.560Z,39.80
2019-04-29T05:33:41.521Z,40.70
2019-04-29T05:36:13.794Z,40.20
2019-04-29T05:38:46.347Z,39.20
2019-04-29T05:41:17.465Z,40.30
2019-04-29T05:43:50.721Z,39.90
2019-04-29T05:46:23.267Z,39.40
2019-04-29T05:48:54.346Z,39.70
2019-04-29T05:51:27.376Z,39.10
2019-04-29T05:54:00.253Z,38.60
2019-04-29T05:56:31.124Z,37.40
2019-04-29T05:59:02.011Z,35.70
2019-04-29T06:01:33.557Z,35.60
2019-04-29T06:04:04.442Z,35.50
2019-04-29T06:06:35.544Z,35.90
2019-04-29T06:09:11.619Z,35.80
2019-04-29T06:11:41.540Z,35.40
2019-04-29T06:14:12.542Z,36.30
2019-04-29T06:16:43.967Z,36.10
2019-04-29T06:19:14.711Z,36.70
2019-04-29T06:21:45.412Z,35.90
2019-04-29T06:24:16.630Z,36.10
2019-04-29T06:26:51.152Z,36.10
2019-04-29T06:29:22.250Z,36.30
2019-04-29T06:31:53.218Z,36.30
2019-04-29T06:34:24.087Z,36.10
2019-04-29T06:36:55.230Z,37.00
2019-04-29T06:39:26.174Z,37.20
2019-04-29T06:41:57.253Z,36.60
2019-04-29T06:44:28.454Z,35.90
2019-04-29T06:46:59.946Z,36.00
2019-04-29T06:49:30.720Z,35.90
2019-04-29T06:52:01.557Z,35.40
2019-04-29T06:54:32.451Z,36.10
2019-04-29T06:57:03.252Z,36.00
2019-04-29T06:59:35.225Z,35.70
2019-04-29T07:02:09.378Z,35.20
2019-04-29T07:04:39.634Z,36.10
2019-04-29T07:07:10.750Z,36.60
2019-04-29T07:09:41.685Z,36.00
2019-04-29T07:12:14.034Z,34.60
2019-04-29T07:14:44.899Z,34.00
2019-04-29T07:17:15.713Z,34.50
2019-04-29T07:19:46.593Z,35.50
2019-04-29T07:22:20.795Z,34.70
2019-04-29T07:24:49.622Z,35.50
2019-04-29T07:27:20.895Z,35.80
2019-04-29T07:29:51.704Z,35.30
2019-04-29T07:32:22.561Z,35.40
2019-04-29T07:34:53.557Z,35.70
2019-04-29T07:37:24.330Z,35.90
2019-04-29T07:39:55.189Z,35.60
2019-04-29T07:42:31.902Z,34.60
2019-04-29T07:44:59.762Z,35.40
2019-04-29T07:47:31.175Z,35.30
2019-04-29T07:50:02.088Z,35.10
2019-04-29T07:52:32.850Z,34.60
2019-04-29T07:55:04.043Z,34.40
2019-04-29T07:57:34.853Z,34.10
2019-04-29T08:00:08.563Z,35.10
2019-04-29T08:02:40.581Z,34.80
2019-04-29T08:05:12.079Z,34.70
2019-04-29T08:07:44.309Z,33.00
2019-04-29T08:10:23.203Z,34.00
2019-04-29T08:12:48.897Z,34.70
2019-04-29T08:15:19.980Z,33.80
2019-04-29T08:17:52.678Z,32.50
2019-04-29T08:20:24.480Z,33.90
2019-04-29T08:22:58.392Z,33.70
2019-04-29T08:25:27.725Z,34.10
2019-04-29T08:27:58.938Z,34.10
2019-04-29T08:30:29.892Z,33.30
2019-04-29T08:33:00.875Z,33.20
2019-04-29T08:35:32.678Z,32.80
2019-04-29T08:38:04.377Z,32.10
2019-04-29T08:40:35.169Z,32.10
2019-04-29T08:43:07.514Z,31.90
2019-04-29T08:45:40.501Z,31.90
2019-04-29T08:48:12.089Z,33.00
2019-04-29T08:50:43.392Z,33.00
2019-04-29T08:53:14.320Z,33.40
2019-04-29T08:55:45.326Z,34.10
2019-04-29T08:58:16.580Z,33.40
2019-04-29T09:00:51.404Z,32.40
2019-04-29T09:03:23.510Z,31.60
2019-04-29T09:06:05.051Z,31.60
2019-04-29T09:08:24.314Z,32.70
2019-04-29T09:10:55.505Z,31.90
2019-04-29T09:13:26.474Z,33.30
2019-04-29T09:15:57.438Z,33.10
2019-04-29T09:18:28.322Z,31.80
2019-04-29T09:20:59.432Z,32.40
2019-04-29T09:23:32.580Z,32.80
2019-04-29T09:26:05.108Z,33.40
2019-04-29T09:28:35.911Z,33.10
2019-04-29T09:31:06.752Z,33.30
2019-04-29T09:33:38.662Z,32.60
2019-04-29T09:36:13.491Z,32.50
2019-04-29T09:38:41.676Z,32.10
2019-04-29T09:41:14.228Z,31.90
2019-04-29T09:43:46.243Z,32.80
2019-04-29T09:46:19.075Z,31.90
2019-04-29T09:48:49.972Z,31.60
2019-04-29T09:51:27.945Z,32.50
2019-04-29T09:53:55.780Z,31.40
2019-04-29T09:56:26.786Z,32.00
2019-04-29T09:58:59.070Z,32.70
2019-04-29T10:01:31.719Z,33.30
2019-04-29T10:04:03.995Z,32.30
2019-04-29T10:06:36.601Z,33.10
2019-04-29T10:09:09.912Z,32.20
2019-04-29T10:11:41.658Z,33.10
2019-04-29T10:14:12.541Z,32.90
2019-04-29T10:16:44.744Z,31.20
2019-04-29T10:19:16.917Z,30.70
2019-04-29T10:21:47.822Z,31.50
2019-04-29T10:24:18.718Z,32.20
2019-04-29T10:26:49.767Z,31.20
2019-04-29T10:29:21.992Z,31.60
2019-04-29T10:31:53.034Z,30.10
2019-04-29T10:34:26.921Z,31.30
2019-04-29T10:36:57.371Z,32.40
2019-04-29T10:39:30.105Z,32.40
2019-04-29T10:42:02.562Z,32.90
2019-04-29T10:44:37.402Z,32.90
2019-04-29T10:47:10.714Z,32.60
2019-04-29T10:49:42.899Z,32.60
2019-04-29T10:52:14.161Z,33.10
2019-04-29T10:54:45.032Z,33.00
2019-04-29T10:57:16.570Z,33.10
2019-04-29T10:59:50.228Z,33.80
2019-04-29T11:02:22.217Z,34.10
2019-04-29T11:04:54.711Z,34.70
2019-04-29T11:07:27.668Z,34.80
2019-04-29T11:10:00.043Z,34.90
2019-04-29T11:12:31.415Z,35.20
2019-04-29T11:15:02.240Z,35.30
2019-04-29T11:17:35.059Z,35.60
2019-04-29T11:20:06.617Z,35.90
2019-04-29T11:22:39.457Z,36.00
2019-04-29T11:25:10.565Z,36.30
2019-04-29T11:27:43.077Z,36.50
2019-04-29T11:30:15.570Z,36.90
2019-04-29T11:32:47.846Z,37.20
2019-04-29T11:35:19.940Z,37.60
2019-04-29T11:37:55.433Z,38.30
2019-04-29T11:40:42.431Z,38.90
2019-04-29T11:42:57.361Z,39.30
2019-04-29T11:45:28.662Z,39.80
2019-04-29T11:47:59.622Z,40.10
2019-04-29T11:50:31.874Z,40.60
2019-04-29T11:53:03.316Z,41.00
2019-04-29T11:55:34.267Z,41.10
2019-04-29T11:58:06.529Z,41.50
2019-04-29T12:00:39.015Z,41.70
2019-04-29T12:03:14.530Z,41.90
2019-04-29T12:05:46.046Z,42.30
2019-04-29T12:08:18.482Z,42.50
2019-04-29T12:11:06.175Z,42.70
2019-04-29T12:13:28.218Z,42.90
2019-04-29T12:15:57.487Z,43.40
2019-04-29T12:18:29.618Z,43.40
2019-04-29T12:21:01.784Z,43.30
2019-04-29T12:23:32.785Z,43.40
2019-04-29T12:26:05.092Z,43.60
2019-04-29T12:28:38.064Z,43.90
2019-04-29T12:31:11.473Z,43.90
2019-04-29T12:33:43.837Z,44.00
2019-04-29T12:36:16.539Z,44.00
2019-04-29T12:38:49.718Z,44.30
2019-04-29T12:41:21.523Z,44.30
2019-04-29T12:43:59.229Z,44.50
2019-04-29T12:46:28.618Z,44.50
2019-04-29T12:49:03.390Z,44.60
2019-04-29T12:51:31.758Z,44.70
2019-04-29T12:54:03.145Z,45.30
2019-04-29T12:56:35.364Z,45.20
2019-04-29T12:59:06.680Z,45.30
2019-04-29T13:01:50.799Z,45.50
2019-04-29T13:04:10.813Z,45.60
2019-04-29T13:06:43.215Z,45.90
2019-04-29T13:09:17.841Z,46.10
2019-04-29T13:11:56.006Z,46.00
2019-04-29T13:14:22.895Z,46.10
2019-04-29T13:16:55.645Z,46.70
2019-04-29T13:19:29.674Z,46.50
2019-04-29T13:22:01.631Z,46.90
2019-04-29T13:24:32.563Z,47.10
2019-04-29T13:27:15.653Z,47.70
2019-04-29T13:29:36.135Z,47.30
2019-04-29T13:32:07.173Z,47.40
2019-04-29T13:34:39.450Z,47.70
2019-04-29T13:37:18.328Z,47.90
2019-04-29T13:39:42.917Z,47.60
2019-04-29T13:42:15.764Z,47.80
2019-04-29T13:45:05.337Z,47.90
2019-04-29T13:47:28.603Z,48.00
2019-04-29T13:49:54.447Z,48.30
2019-04-29T13:52:25.305Z,48.20
2019-04-29T13:54:56.153Z,48.20
2019-04-29T13:57:26.856Z,48.50
2019-04-29T13:59:59.102Z,48.50
2019-04-29T14:02:36.378Z,48.80
2019-04-29T14:05:05.437Z,48.80
2019-04-29T14:07:39.195Z,48.70
2019-04-29T14:10:14.767Z,48.90
2019-04-29T14:12:48.563Z,49.10
2019-04-29T14:15:15.878Z,49.20
2019-04-29T14:17:46.686Z,50.50
2019-04-29T14:20:17.706Z,49.60
2019-04-29T14:22:48.924Z,49.40
2019-04-29T14:25:19.846Z,49.40
2019-04-29T14:27:51.583Z,49.20
2019-04-29T14:30:37.526Z,49.00
2019-04-29T14:32:56.030Z,49.90
2019-04-29T14:35:28.153Z,48.90
2019-04-29T14:38:04.737Z,49.00
